createdAt,value
2023-04-26T00:00:00.731Z,99055.38
2023-04-26T00:02:30.503Z,99058.53
2023-04-26T00:04:59.293Z,99054.44
2023-04-26T00:07:26.183Z,99061.63
2023-04-26T00:09:53.135Z,99068.63
2023-04-26T00:12:20.056Z,99059.50
2023-04-26T00:14:46.917Z,99064.97
2023-04-26T00:17:13.686Z,99078.25
2023-04-26T00:19:40.372Z,99073.59
2023-04-26T00:22:07.136Z,99071.63
2023-04-26T00:24:33.932Z,99070.13
2023-04-26T00:27:01.871Z,99065.91
2023-04-26T00:29:28.693Z,99069.75
2023-04-26T00:31:55.588Z,99074.31
2023-04-26T00:34:22.406Z,99072.88
2023-04-26T00:36:49.505Z,99075.88
2023-04-26T00:39:16.638Z,99074.13
2023-04-26T00:41:43.675Z,99074.44
2023-04-26T00:44:10.665Z,99072.25
2023-04-26T00:46:37.559Z,99070.59
2023-04-26T00:49:04.446Z,99069.53
2023-04-26T00:51:31.785Z,99073.31
2023-04-26T00:53:59.809Z,99073.34
2023-04-26T00:56:26.662Z,99073.97
2023-04-26T00:58:53.908Z,99067.53
2023-04-26T01:01:21.774Z,99071.25
2023-04-26T01:03:49.307Z,99069.47
2023-04-26T01:06:16.255Z,99078.03
2023-04-26T01:08:43.101Z,99078.75
2023-04-26T01:11:09.933Z,99071.69
2023-04-26T01:13:38.133Z,99079.88
2023-04-26T01:16:05.392Z,99081.25
2023-04-26T01:18:32.068Z,99081.88
2023-04-26T01:21:00.569Z,99083.22
2023-04-26T01:23:28.793Z,99089.38
2023-04-26T01:25:56.711Z,99088.31
2023-04-26T01:28:23.679Z,99083.94
2023-04-26T01:30:50.466Z,99086.78
2023-04-26T01:33:17.585Z,99085.81
2023-04-26T01:35:44.436Z,99088.34
2023-04-26T01:38:11.396Z,99080.72
2023-04-26T01:40:38.089Z,99084.47
2023-04-26T01:43:04.887Z,99081.25
2023-04-26T01:45:31.630Z,99077.94
2023-04-26T01:47:58.695Z,99080.31
2023-04-26T01:50:25.505Z,99075.09
2023-04-26T01:52:52.261Z,99079.78
2023-04-26T01:55:19.296Z,99078.75
2023-04-26T01:57:46.298Z,99076.53
2023-04-26T02:00:13.318Z,99077.69
2023-04-26T02:02:40.247Z,99087.03
2023-04-26T02:05:09.580Z,99079.91
2023-04-26T02:07:36.312Z,99076.78
2023-04-26T02:10:03.804Z,99077.91
2023-04-26T02:12:30.600Z,99070.88
2023-04-26T02:14:57.348Z,99079.25
2023-04-26T02:17:26.739Z,99077.81
2023-04-26T02:19:53.970Z,99082.34
2023-04-26T02:22:23.571Z,99084.63
2023-04-26T02:24:50.427Z,99087.00
2023-04-26T02:27:17.312Z,99082.75
2023-04-26T02:29:44.961Z,99071.09
2023-04-26T02:32:12.867Z,99077.94
2023-04-26T02:34:39.672Z,99076.41
2023-04-26T02:37:06.469Z,99083.88
2023-04-26T02:39:33.340Z,99084.50
2023-04-26T02:42:00.116Z,99084.53
2023-04-26T02:44:30.540Z,99084.75
2023-04-26T02:46:58.063Z,99088.84
2023-04-26T02:49:25.136Z,99088.13
2023-04-26T02:51:52.095Z,99087.75
2023-04-26T02:54:18.802Z,99097.63
2023-04-26T02:56:45.839Z,99091.25
2023-04-26T02:59:12.603Z,99087.56
2023-04-26T03:01:39.610Z,99096.63
2023-04-26T03:04:06.662Z,99095.91
2023-04-26T03:06:33.711Z,99092.66
2023-04-26T03:09:00.652Z,99090.16
2023-04-26T03:11:27.561Z,99092.31
2023-04-26T03:13:54.281Z,99097.03
2023-04-26T03:16:24.341Z,99088.03
2023-04-26T03:18:51.345Z,99095.91
2023-04-26T03:21:18.275Z,99098.69
2023-04-26T03:23:45.018Z,99095.25
2023-04-26T03:26:12.027Z,99096.06
2023-04-26T03:28:38.804Z,99092.47
2023-04-26T03:31:05.662Z,99089.41
2023-04-26T03:33:32.504Z,99096.84
2023-04-26T03:35:59.230Z,99090.44
2023-04-26T03:38:26.449Z,99089.59
2023-04-26T03:40:53.204Z,99092.13
2023-04-26T03:43:19.909Z,99094.31
2023-04-26T03:45:50.446Z,99108.19
2023-04-26T03:48:17.500Z,99093.72
2023-04-26T03:50:47.322Z,99094.22
2023-04-26T03:53:14.050Z,99103.75
2023-04-26T03:55:40.873Z,99098.47
2023-04-26T03:58:08.684Z,99096.88
2023-04-26T04:00:38.112Z,99099.28
2023-04-26T04:03:05.724Z,99107.50
2023-04-26T04:05:32.944Z,99098.63
2023-04-26T04:08:00.227Z,99103.66
2023-04-26T04:10:27.002Z,99100.00
2023-04-26T04:12:54.419Z,99108.94
2023-04-26T04:15:21.593Z,99104.75
2023-04-26T04:17:48.409Z,99110.19
2023-04-26T04:20:15.314Z,99104.75
2023-04-26T04:22:42.127Z,99105.84
2023-04-26T04:25:10.700Z,99109.00
2023-04-26T04:27:38.382Z,99104.66
2023-04-26T04:30:07.861Z,99109.97
2023-04-26T04:32:35.330Z,99105.22
2023-04-26T04:35:02.572Z,99111.22
2023-04-26T04:37:29.461Z,99101.50
2023-04-26T04:39:56.317Z,99110.84
2023-04-26T04:42:23.741Z,99116.78
2023-04-26T04:44:50.933Z,99112.69
2023-04-26T04:47:18.067Z,99119.00
2023-04-26T04:49:45.328Z,99118.31
2023-04-26T04:52:12.539Z,99117.63
2023-04-26T04:54:39.329Z,99118.19
2023-04-26T04:57:06.870Z,99116.06
2023-04-26T04:59:33.893Z,99118.22
2023-04-26T05:02:01.102Z,99127.56
2023-04-26T05:04:27.962Z,99123.75
2023-04-26T05:06:55.281Z,99124.06
2023-04-26T05:09:22.015Z,99127.59
2023-04-26T05:11:48.913Z,99133.97
2023-04-26T05:14:15.940Z,99141.03
2023-04-26T05:16:42.818Z,99141.47
2023-04-26T05:19:09.879Z,99146.00
2023-04-26T05:21:36.846Z,99141.31
2023-04-26T05:24:04.627Z,99139.56
2023-04-26T05:26:31.407Z,99135.47
2023-04-26T05:28:58.283Z,99146.81
2023-04-26T05:31:25.112Z,99148.06
2023-04-26T05:33:52.499Z,99150.28
2023-04-26T05:36:19.804Z,99151.19
2023-04-26T05:38:46.740Z,99160.00
2023-04-26T05:41:13.443Z,99164.78
2023-04-26T05:43:41.148Z,99159.25
2023-04-26T05:46:08.087Z,99157.34
2023-04-26T05:48:35.134Z,99169.94
2023-04-26T05:51:02.537Z,99166.53
2023-04-26T05:53:29.481Z,99169.16
2023-04-26T05:55:57.065Z,99171.34
2023-04-26T05:58:24.096Z,99167.50
2023-04-26T06:00:51.301Z,99172.22
2023-04-26T06:03:19.203Z,99169.91
2023-04-26T06:05:46.421Z,99173.47
2023-04-26T06:08:13.448Z,99166.38
2023-04-26T06:10:40.282Z,99174.94
2023-04-26T06:13:07.097Z,99169.06
2023-04-26T06:15:34.442Z,99170.09
2023-04-26T06:18:01.293Z,99171.75
2023-04-26T06:20:28.374Z,99166.56
2023-04-26T06:22:55.171Z,99163.75
2023-04-26T06:25:22.193Z,99167.41
2023-04-26T06:27:49.172Z,99174.50
2023-04-26T06:30:16.258Z,99180.91
2023-04-26T06:32:43.256Z,99176.00
2023-04-26T06:35:10.270Z,99172.66
2023-04-26T06:37:37.749Z,99175.78
2023-04-26T06:40:05.510Z,99178.09
2023-04-26T06:42:32.896Z,99181.09
2023-04-26T06:45:00.008Z,99184.81
2023-04-26T06:47:27.401Z,99187.34
2023-04-26T06:49:54.202Z,99185.97
2023-04-26T06:52:21.670Z,99185.47
2023-04-26T06:54:56.530Z,99182.28
2023-04-26T06:57:26.784Z,99189.78
2023-04-26T06:59:53.899Z,99190.06
2023-04-26T07:02:21.233Z,99185.22
2023-04-26T07:04:48.173Z,99189.88
2023-04-26T07:07:15.892Z,99193.19
2023-04-26T07:09:43.647Z,99195.19
2023-04-26T07:12:14.140Z,99193.13
2023-04-26T07:14:41.771Z,99184.34
2023-04-26T07:17:08.881Z,99188.69
2023-04-26T07:19:35.765Z,99186.41
2023-04-26T07:22:02.816Z,99197.84
2023-04-26T07:24:29.709Z,99194.38
2023-04-26T07:26:56.953Z,99201.22
2023-04-26T07:29:24.810Z,99207.41
2023-04-26T07:31:51.843Z,99192.81
2023-04-26T07:34:18.814Z,99192.47
2023-04-26T07:36:46.167Z,99195.78
2023-04-26T07:39:12.955Z,99197.69
2023-04-26T07:41:42.432Z,99195.94
2023-04-26T07:44:11.623Z,99205.56
2023-04-26T07:46:40.586Z,99200.94
2023-04-26T07:49:08.037Z,99203.44
2023-04-26T07:51:36.493Z,99199.63
2023-04-26T07:54:03.381Z,99197.63
2023-04-26T07:56:30.806Z,99204.03
2023-04-26T07:58:57.977Z,99215.06
2023-04-26T08:01:25.462Z,99203.66
2023-04-26T08:03:53.580Z,99211.31
2023-04-26T08:06:21.327Z,99211.41
2023-04-26T08:08:51.022Z,99203.84
2023-04-26T08:11:18.700Z,99206.06
2023-04-26T08:13:46.032Z,99204.16
2023-04-26T08:16:15.456Z,99198.91
2023-04-26T08:18:45.382Z,99201.28
2023-04-26T08:21:13.690Z,99201.63
2023-04-26T08:23:40.419Z,99203.44
2023-04-26T08:26:07.580Z,99205.34
2023-04-26T08:28:36.094Z,99203.44
2023-04-26T08:31:02.994Z,99204.13
2023-04-26T08:33:30.023Z,99203.44
2023-04-26T08:35:57.459Z,99205.69
2023-04-26T08:38:25.221Z,99209.13
2023-04-26T08:40:55.305Z,99202.38
2023-04-26T08:43:25.356Z,99187.38
2023-04-26T08:45:53.037Z,99200.09
2023-04-26T08:48:20.203Z,99200.53
2023-04-26T08:50:47.928Z,99195.97
2023-04-26T08:53:18.432Z,99200.34
2023-04-26T08:55:49.532Z,99202.75
2023-04-26T08:58:18.168Z,99196.50
2023-04-26T09:00:46.238Z,99195.28
2023-04-26T09:03:13.724Z,99202.19
2023-04-26T09:05:44.473Z,99202.56
2023-04-26T09:08:17.736Z,99207.19
2023-04-26T09:10:45.619Z,99203.25
2023-04-26T09:13:13.547Z,99204.06
2023-04-26T09:15:41.804Z,99189.31
2023-04-26T09:18:19.165Z,99195.28
2023-04-26T09:20:47.532Z,99193.66
2023-04-26T09:23:18.582Z,99191.66
2023-04-26T09:25:45.519Z,99196.34
2023-04-26T09:28:22.963Z,99194.31
2023-04-26T09:30:50.897Z,99197.66
2023-04-26T09:33:20.250Z,99194.53
2023-04-26T09:35:50.942Z,99189.38
2023-04-26T09:38:19.171Z,99195.28
2023-04-26T09:40:48.607Z,99189.50
2023-04-26T09:43:22.910Z,99186.28
2023-04-26T09:45:51.444Z,99183.16
2023-04-26T09:48:27.509Z,99180.72
2023-04-26T09:50:56.809Z,99176.75
2023-04-26T09:53:43.000Z,99170.41
2023-04-26T09:56:19.584Z,99166.75
2023-04-26T09:59:01.651Z,99171.47
2023-04-26T10:01:31.277Z,99171.69
2023-04-26T10:03:58.786Z,99166.75
2023-04-26T10:06:26.410Z,99174.50
2023-04-26T10:08:56.486Z,99179.75
2023-04-26T10:11:30.936Z,99173.19
2023-04-26T10:13:58.129Z,99167.50
2023-04-26T10:16:25.631Z,99171.78
2023-04-26T10:18:53.186Z,99177.31
2023-04-26T10:21:29.589Z,99178.75
2023-04-26T10:23:57.003Z,99182.34
2023-04-26T10:26:57.784Z,99190.28
2023-04-26T10:29:26.462Z,99182.94
2023-04-26T10:32:06.754Z,99180.09
2023-04-26T10:34:35.338Z,99179.13
2023-04-26T10:37:10.540Z,99181.13
2023-04-26T10:39:41.385Z,99173.59
2023-04-26T10:42:32.940Z,99175.13
2023-04-26T10:45:00.787Z,99170.41
2023-04-26T10:47:32.763Z,99180.69
2023-04-26T10:50:05.861Z,99180.63
2023-04-26T10:52:34.143Z,99172.34
2023-04-26T10:55:02.655Z,99177.59
2023-04-26T10:57:50.687Z,99169.78
2023-04-26T11:00:21.399Z,99178.59
2023-04-26T11:03:00.391Z,99175.06
2023-04-26T11:05:57.733Z,99167.84
2023-04-26T11:08:30.864Z,99169.81
2023-04-26T11:11:09.657Z,99170.47
2023-04-26T11:13:44.860Z,99163.88
2023-04-26T11:16:17.034Z,99166.72
2023-04-26T11:18:46.674Z,99155.84
2023-04-26T11:21:18.502Z,99155.41
2023-04-26T11:23:54.774Z,99147.97
2023-04-26T11:26:22.823Z,99148.16
2023-04-26T11:28:51.602Z,99150.22
2023-04-26T11:31:19.634Z,99150.78
2023-04-26T11:33:50.039Z,99150.34
2023-04-26T11:36:17.889Z,99158.56
2023-04-26T11:38:44.944Z,99157.97
2023-04-26T11:41:12.724Z,99153.56
2023-04-26T11:43:40.293Z,99145.91
2023-04-26T11:46:09.108Z,99146.34
2023-04-26T11:48:39.049Z,99148.16
2023-04-26T11:51:07.963Z,99148.91
2023-04-26T11:53:41.146Z,99149.81
2023-04-26T11:56:19.255Z,99154.84
2023-04-26T11:58:55.056Z,99145.16
2023-04-26T12:01:27.238Z,99155.34
2023-04-26T12:03:56.942Z,99153.28
2023-04-26T12:06:45.545Z,99157.97
2023-04-26T12:09:13.870Z,99151.25
2023-04-26T12:11:49.565Z,99152.41
2023-04-26T12:14:16.841Z,99158.34
2023-04-26T12:16:43.811Z,99156.56
2023-04-26T12:19:11.620Z,99156.94
2023-04-26T12:21:43.264Z,99155.75
2023-04-26T12:24:27.021Z,99143.56
2023-04-26T12:26:54.059Z,99145.94
2023-04-26T12:29:21.057Z,99154.53
2023-04-26T12:31:48.245Z,99137.34
2023-04-26T12:34:15.529Z,99143.44
2023-04-26T12:36:45.492Z,99143.31
2023-04-26T12:39:14.393Z,99146.66
2023-04-26T12:41:45.145Z,99142.34
2023-04-26T12:44:13.228Z,99150.78
2023-04-26T12:46:40.841Z,99149.13
2023-04-26T12:49:14.401Z,99149.13
2023-04-26T12:51:41.929Z,99146.34
2023-04-26T12:54:18.731Z,99151.06
2023-04-26T12:56:47.128Z,99150.75
2023-04-26T12:59:19.216Z,99156.56
2023-04-26T13:01:48.472Z,99158.09
2023-04-26T13:04:17.603Z,99159.88
2023-04-26T13:06:44.901Z,99154.50
2023-04-26T13:09:14.307Z,99153.69
2023-04-26T13:11:41.763Z,99150.09
2023-04-26T13:14:09.713Z,99156.00
2023-04-26T13:16:39.153Z,99149.75
2023-04-26T13:19:07.321Z,99148.69
2023-04-26T13:21:34.624Z,99141.50
2023-04-26T13:24:01.655Z,99143.13
2023-04-26T13:26:29.052Z,99145.22
2023-04-26T13:28:56.417Z,99144.78
2023-04-26T13:31:23.682Z,99149.06
2023-04-26T13:33:51.148Z,99140.13
2023-04-26T13:36:21.385Z,99147.63
2023-04-26T13:38:49.168Z,99144.72
2023-04-26T13:41:16.685Z,99142.22
2023-04-26T13:43:47.219Z,99151.59
2023-04-26T13:46:14.537Z,99154.41
2023-04-26T13:48:41.629Z,99151.59
2023-04-26T13:51:08.657Z,99144.03
2023-04-26T13:53:35.636Z,99148.28
2023-04-26T13:56:02.584Z,99144.44
2023-04-26T13:58:29.358Z,99147.34
2023-04-26T14:01:03.082Z,99145.53
2023-04-26T14:03:30.169Z,99150.53
2023-04-26T14:05:59.739Z,99152.59
2023-04-26T14:08:26.816Z,99159.34
2023-04-26T14:10:56.512Z,99160.44
2023-04-26T14:13:24.780Z,99166.69
2023-04-26T14:15:51.772Z,99160.31
2023-04-26T14:18:18.926Z,99166.38
2023-04-26T14:20:46.140Z,99162.63
2023-04-26T14:23:12.931Z,99162.38
2023-04-26T14:25:40.887Z,99163.22
2023-04-26T14:28:08.709Z,99162.63
2023-04-26T14:30:35.892Z,99161.94
2023-04-26T14:33:03.129Z,99151.19
2023-04-26T14:35:33.131Z,99156.81
2023-04-26T14:38:00.348Z,99155.47
2023-04-26T14:40:27.219Z,99157.41
2023-04-26T14:42:54.194Z,99154.94
2023-04-26T14:45:23.662Z,99159.34
2023-04-26T14:47:54.794Z,99154.78
2023-04-26T14:50:21.886Z,99157.28
2023-04-26T14:52:49.104Z,99160.88
2023-04-26T14:55:23.739Z,99151.88
2023-04-26T14:57:55.391Z,99155.47
2023-04-26T15:00:23.818Z,99150.22
2023-04-26T15:02:53.244Z,99152.97
2023-04-26T15:05:27.690Z,99142.19
2023-04-26T15:08:02.278Z,99141.09
2023-04-26T15:10:30.051Z,99142.88
2023-04-26T15:12:58.238Z,99139.44
2023-04-26T15:15:25.306Z,99135.66
2023-04-26T15:17:53.097Z,99135.53
2023-04-26T15:20:25.539Z,99139.94
2023-04-26T15:22:52.736Z,99131.84
2023-04-26T15:25:20.180Z,99137.22
2023-04-26T15:27:47.933Z,99124.22
2023-04-26T15:30:15.184Z,99119.75
2023-04-26T15:32:42.363Z,99123.09
2023-04-26T15:35:13.288Z,99124.19
2023-04-26T15:37:41.041Z,99123.53
2023-04-26T15:40:10.926Z,99128.91
2023-04-26T15:42:37.857Z,99120.16
2023-04-26T15:45:05.563Z,99110.03
2023-04-26T15:47:36.312Z,99120.69
2023-04-26T15:50:04.709Z,99115.63
2023-04-26T15:52:38.976Z,99125.78
2023-04-26T15:55:10.043Z,99125.34
2023-04-26T15:57:37.316Z,99126.44
2023-04-26T16:00:09.196Z,99120.63
2023-04-26T16:02:37.765Z,99126.16
2023-04-26T16:05:05.315Z,99120.91
2023-04-26T16:07:33.199Z,99128.41
2023-04-26T16:09:59.987Z,99123.16
2023-04-26T16:12:27.540Z,99127.28
2023-04-26T16:14:54.766Z,99130.03
2023-04-26T16:17:22.501Z,99127.28
2023-04-26T16:19:49.991Z,99126.03
2023-04-26T16:22:17.474Z,99129.38
2023-04-26T16:24:44.624Z,99119.81
2023-04-26T16:27:11.512Z,99125.34
2023-04-26T16:29:38.813Z,99125.22
2023-04-26T16:32:05.652Z,99120.38
2023-04-26T16:34:33.590Z,99128.97
2023-04-26T16:37:00.660Z,99117.63
2023-04-26T16:39:29.024Z,99122.19
2023-04-26T16:41:56.081Z,99118.72
2023-04-26T16:44:23.351Z,99113.06
2023-04-26T16:46:50.116Z,99114.03
2023-04-26T16:49:17.115Z,99121.75
2023-04-26T16:51:53.705Z,99132.81
2023-04-26T16:54:21.275Z,99139.47
2023-04-26T16:56:48.235Z,99133.91
2023-04-26T16:59:15.288Z,99136.13
2023-04-26T17:01:44.702Z,99128.00
2023-04-26T17:04:13.096Z,99136.84
2023-04-26T17:06:40.954Z,99136.41
2023-04-26T17:09:09.002Z,99129.78
2023-04-26T17:11:37.633Z,99130.88
2023-04-26T17:14:04.776Z,99129.22
2023-04-26T17:16:32.087Z,99138.34
2023-04-26T17:18:59.354Z,99140.53
2023-04-26T17:21:26.706Z,99140.50
2023-04-26T17:23:53.689Z,99136.81
2023-04-26T17:26:22.441Z,99138.63
2023-04-26T17:28:49.852Z,99135.28
2023-04-26T17:31:16.602Z,99136.28
2023-04-26T17:33:43.865Z,99140.22
2023-04-26T17:36:11.234Z,99144.25
2023-04-26T17:38:38.144Z,99142.03
2023-04-26T17:41:05.057Z,99145.84
2023-04-26T17:43:32.450Z,99140.03
2023-04-26T17:45:59.406Z,99145.28
2023-04-26T17:48:26.605Z,99153.63
2023-04-26T17:50:53.907Z,99149.78
2023-04-26T17:53:21.888Z,99147.47
2023-04-26T17:55:49.836Z,99155.16
2023-04-26T17:58:16.731Z,99159.09
2023-04-26T18:00:44.036Z,99160.19
2023-04-26T18:03:12.692Z,99162.78
2023-04-26T18:05:40.160Z,99153.53
2023-04-26T18:08:07.062Z,99157.03
2023-04-26T18:10:33.946Z,99160.41
2023-04-26T18:13:01.257Z,99167.91
2023-04-26T18:15:28.487Z,99161.88
2023-04-26T18:17:55.382Z,99170.69
2023-04-26T18:20:22.983Z,99177.66
2023-04-26T18:22:50.077Z,99168.91
2023-04-26T18:25:17.286Z,99163.78
2023-04-26T18:27:44.752Z,99175.16
2023-04-26T18:30:13.584Z,99171.91
2023-04-26T18:32:41.566Z,99170.06
2023-04-26T18:35:09.446Z,99174.06
2023-04-26T18:37:36.637Z,99178.97
2023-04-26T18:40:05.337Z,99176.56
2023-04-26T18:42:32.326Z,99184.22
2023-04-26T18:45:01.259Z,99184.22
2023-04-26T18:47:28.219Z,99180.31
2023-04-26T18:49:55.075Z,99181.91
2023-04-26T18:52:22.264Z,99183.50
2023-04-26T18:54:49.344Z,99183.50
2023-04-26T18:57:18.418Z,99181.50
2023-04-26T18:59:45.202Z,99184.47
2023-04-26T19:02:12.457Z,99188.91
2023-04-26T19:04:40.248Z,99194.41
2023-04-26T19:07:07.287Z,99194.63
2023-04-26T19:09:43.206Z,99204.47
2023-04-26T19:12:17.473Z,99203.66
2023-04-26T19:14:44.493Z,99204.97
2023-04-26T19:17:11.632Z,99205.56
2023-04-26T19:19:38.504Z,99209.38
2023-04-26T19:22:05.684Z,99220.88
2023-04-26T19:24:32.458Z,99214.00
2023-04-26T19:26:59.117Z,99212.72
2023-04-26T19:29:25.915Z,99213.31
2023-04-26T19:31:52.790Z,99222.31
2023-04-26T19:34:19.582Z,99215.22
2023-04-26T19:36:46.613Z,99216.34
2023-04-26T19:39:13.423Z,99214.41
2023-04-26T19:41:40.180Z,99212.56
2023-04-26T19:44:07.037Z,99224.22
2023-04-26T19:46:34.162Z,99219.84
2023-04-26T19:49:01.250Z,99212.09
2023-04-26T19:51:28.389Z,99224.94
2023-04-26T19:53:55.146Z,99229.00
2023-04-26T19:56:23.465Z,99223.78
2023-04-26T19:58:50.164Z,99228.88
2023-04-26T20:01:17.011Z,99215.53
2023-04-26T20:03:43.975Z,99229.00
2023-04-26T20:06:12.041Z,99234.84
2023-04-26T20:08:39.116Z,99236.34
2023-04-26T20:11:05.956Z,99236.13
2023-04-26T20:13:33.064Z,99238.50
2023-04-26T20:15:59.775Z,99238.59
2023-04-26T20:18:26.609Z,99241.34
2023-04-26T20:20:53.746Z,99237.25
2023-04-26T20:23:20.509Z,99235.16
2023-04-26T20:25:47.216Z,99228.75
2023-04-26T20:28:13.960Z,99236.38
2023-04-26T20:30:40.961Z,99231.34
2023-04-26T20:33:08.311Z,99242.00
2023-04-26T20:35:35.078Z,99231.38
2023-04-26T20:38:01.920Z,99231.19
2023-04-26T20:40:28.949Z,99226.25
2023-04-26T20:42:55.856Z,99228.16
2023-04-26T20:45:22.626Z,99232.81
2023-04-26T20:47:49.391Z,99222.47
2023-04-26T20:50:16.541Z,99233.53
2023-04-26T20:52:43.868Z,99233.63
2023-04-26T20:55:10.830Z,99209.94
2023-04-26T20:57:38.710Z,99223.38
2023-04-26T21:00:07.715Z,99224.69
2023-04-26T21:02:34.555Z,99223.38
2023-04-26T21:05:01.393Z,99231.25
2023-04-26T21:07:28.279Z,99229.66
2023-04-26T21:09:54.992Z,99243.00
2023-04-26T21:12:21.792Z,99232.22
2023-04-26T21:14:48.692Z,99241.81
2023-04-26T21:17:16.382Z,99246.81
2023-04-26T21:19:43.778Z,99246.31
2023-04-26T21:22:13.592Z,99236.19
2023-04-26T21:24:52.892Z,99235.78
2023-04-26T21:27:29.709Z,99246.22
2023-04-26T21:29:57.319Z,99243.69
2023-04-26T21:32:24.501Z,99240.59
2023-04-26T21:34:51.313Z,99235.47
2023-04-26T21:37:18.260Z,99240.59
2023-04-26T21:39:45.072Z,99241.25
2023-04-26T21:42:11.921Z,99247.47
2023-04-26T21:44:38.812Z,99251.78
2023-04-26T21:47:05.824Z,99252.84
2023-04-26T21:49:32.594Z,99251.03
2023-04-26T21:51:59.517Z,99259.56
2023-04-26T21:54:26.296Z,99249.56
2023-04-26T21:56:53.295Z,99257.31
2023-04-26T21:59:19.995Z,99234.84
2023-04-26T22:01:46.919Z,99254.66
2023-04-26T22:04:14.141Z,99251.50
2023-04-26T22:06:40.919Z,99253.41
2023-04-26T22:09:10.382Z,99255.91
2023-04-26T22:11:37.287Z,99255.16
2023-04-26T22:14:04.332Z,99252.25
2023-04-26T22:16:32.203Z,99253.91
2023-04-26T22:18:59.059Z,99258.19
2023-04-26T22:21:27.181Z,99248.22
2023-04-26T22:23:54.072Z,99244.50
2023-04-26T22:26:21.518Z,99236.34
2023-04-26T22:28:48.392Z,99250.31
2023-04-26T22:31:15.077Z,99255.38
2023-04-26T22:33:41.844Z,99260.72
2023-04-26T22:36:09.188Z,99258.25
2023-04-26T22:38:36.141Z,99256.75
2023-04-26T22:41:02.980Z,99255.13
2023-04-26T22:43:29.684Z,99257.72
2023-04-26T22:45:56.546Z,99265.97
2023-04-26T22:48:23.488Z,99262.53
2023-04-26T22:50:50.869Z,99262.63
2023-04-26T22:53:17.722Z,99260.53
2023-04-26T22:55:44.570Z,99266.91
2023-04-26T22:58:11.505Z,99270.25
2023-04-26T23:00:38.391Z,99257.31
2023-04-26T23:03:05.264Z,99261.78
2023-04-26T23:05:32.052Z,99259.38
2023-04-26T23:07:58.861Z,99265.34
2023-04-26T23:10:25.773Z,99266.16
2023-04-26T23:12:53.192Z,99270.56
2023-04-26T23:15:20.126Z,99277.25
2023-04-26T23:17:47.236Z,99277.00
2023-04-26T23:20:14.250Z,99271.81
2023-04-26T23:22:41.804Z,99274.69
2023-04-26T23:25:09.402Z,99274.50
2023-04-26T23:27:37.501Z,99277.19
2023-04-26T23:30:04.963Z,99280.34
2023-04-26T23:32:31.870Z,99274.31
2023-04-26T23:34:59.052Z,99281.09
2023-04-26T23:37:26.112Z,99280.38
2023-04-26T23:39:52.812Z,99274.22
2023-04-26T23:42:19.555Z,99280.13
2023-04-26T23:44:46.220Z,99281.69
2023-04-26T23:47:13.080Z,99283.16
2023-04-26T23:49:39.794Z,99267.53
2023-04-26T23:52:06.942Z,99277.50
2023-04-26T23:54:33.630Z,99273.69
2023-04-26T23:57:00.317Z,99271.66
2023-04-26T23:59:27.108Z,99273.22
